sensor_id;sensor_type;location;lat;lon;timestamp;P1;durP1;ratioP1;P2;durP2;ratioP2
28547;SDS011;68292;49.600;8.746;2024-01-27T00:02:04;5.13;;;3.17;;
28547;SDS011;68292;49.600;8.746;2024-01-27T00:04:34;4.47;;;3.67;;
28547;SDS011;68292;49.600;8.746;2024-01-27T00:07:04;5.30;;;3.73;;
28547;SDS011;68292;49.600;8.746;2024-01-27T00:09:33;3.03;;;2.40;;
28547;SDS011;68292;49.600;8.746;2024-01-27T00:12:03;7.77;;;2.90;;
28547;SDS011;68292;49.600;8.746;2024-01-27T00:14:33;5.23;;;2.80;;
28547;SDS011;68292;49.600;8.746;2024-01-27T00:17:01;6.77;;;3.50;;
28547;SDS011;68292;49.600;8.746;2024-01-27T00:19:30;4.67;;;2.77;;
28547;SDS011;68292;49.600;8.746;2024-01-27T00:22:01;4.17;;;2.63;;
28547;SDS011;68292;49.600;8.746;2024-01-27T00:24:30;3.60;;;2.57;;
28547;SDS011;68292;49.600;8.746;2024-01-27T00:26:59;5.10;;;2.80;;
28547;SDS011;68292;49.600;8.746;2024-01-27T00:29:29;4.10;;;2.13;;
28547;SDS011;68292;49.600;8.746;2024-01-27T00:31:58;3.97;;;2.53;;
28547;SDS011;68292;49.600;8.746;2024-01-27T00:34:27;5.67;;;2.40;;
28547;SDS011;68292;49.600;8.746;2024-01-27T00:36:56;3.40;;;2.43;;
28547;SDS011;68292;49.600;8.746;2024-01-27T00:39:25;2.67;;;2.20;;
28547;SDS011;68292;49.600;8.746;2024-01-27T00:41:54;3.07;;;2.40;;
28547;SDS011;68292;49.600;8.746;2024-01-27T00:44:25;8.00;;;2.90;;
28547;SDS011;68292;49.600;8.746;2024-01-27T00:46:55;3.40;;;2.70;;
28547;SDS011;68292;49.600;8.746;2024-01-27T00:49:24;4.13;;;2.83;;
28547;SDS011;68292;49.600;8.746;2024-01-27T00:51:53;6.37;;;3.97;;
28547;SDS011;68292;49.600;8.746;2024-01-27T00:54:22;5.33;;;4.23;;
28547;SDS011;68292;49.600;8.746;2024-01-27T00:56:52;5.77;;;4.27;;
28547;SDS011;68292;49.600;8.746;2024-01-27T00:59:21;5.73;;;4.43;;
28547;SDS011;68292;49.600;8.746;2024-01-27T01:01:50;5.33;;;3.90;;
28547;SDS011;68292;49.600;8.746;2024-01-27T01:04:20;7.23;;;3.70;;
28547;SDS011;68292;49.600;8.746;2024-01-27T01:06:49;5.63;;;3.30;;
28547;SDS011;68292;49.600;8.746;2024-01-27T01:09:17;5.80;;;3.87;;
28547;SDS011;68292;49.600;8.746;2024-01-27T01:11:46;5.20;;;3.30;;
28547;SDS011;68292;49.600;8.746;2024-01-27T01:14:15;6.50;;;2.73;;
28547;SDS011;68292;49.600;8.746;2024-01-27T01:16:44;3.07;;;2.67;;
28547;SDS011;68292;49.600;8.746;2024-01-27T01:19:13;2.70;;;2.50;;
28547;SDS011;68292;49.600;8.746;2024-01-27T01:21:43;5.77;;;3.20;;
28547;SDS011;68292;49.600;8.746;2024-01-27T01:24:12;4.00;;;3.00;;
28547;SDS011;68292;49.600;8.746;2024-01-27T01:26:41;5.23;;;3.80;;
28547;SDS011;68292;49.600;8.746;2024-01-27T01:29:10;3.70;;;3.30;;
28547;SDS011;68292;49.600;8.746;2024-01-27T01:31:41;4.53;;;3.43;;
28547;SDS011;68292;49.600;8.746;2024-01-27T01:34:10;8.33;;;3.77;;
28547;SDS011;68292;49.600;8.746;2024-01-27T01:36:39;6.30;;;3.17;;
28547;SDS011;68292;49.600;8.746;2024-01-27T01:39:09;5.97;;;3.80;;
28547;SDS011;68292;49.600;8.746;2024-01-27T01:41:39;4.50;;;3.37;;
28547;SDS011;68292;49.600;8.746;2024-01-27T01:44:08;5.83;;;2.90;;
28547;SDS011;68292;49.600;8.746;2024-01-27T01:46:37;3.90;;;3.27;;
28547;SDS011;68292;49.600;8.746;2024-01-27T01:49:06;3.50;;;2.80;;
28547;SDS011;68292;49.600;8.746;2024-01-27T01:51:35;5.40;;;2.33;;
28547;SDS011;68292;49.600;8.746;2024-01-27T01:54:04;2.83;;;2.37;;
28547;SDS011;68292;49.600;8.746;2024-01-27T01:56:36;3.67;;;2.17;;
28547;SDS011;68292;49.600;8.746;2024-01-27T01:59:05;4.37;;;2.77;;
28547;SDS011;68292;49.600;8.746;2024-01-27T02:01:34;4.03;;;2.67;;
28547;SDS011;68292;49.600;8.746;2024-01-27T02:04:03;3.90;;;2.70;;
28547;SDS011;68292;49.600;8.746;2024-01-27T02:06:32;3.43;;;2.27;;
28547;SDS011;68292;49.600;8.746;2024-01-27T02:09:01;4.70;;;2.90;;
28547;SDS011;68292;49.600;8.746;2024-01-27T02:11:31;2.87;;;2.40;;
28547;SDS011;68292;49.600;8.746;2024-01-27T02:14:02;4.87;;;2.40;;
28547;SDS011;68292;49.600;8.746;2024-01-27T02:16:31;3.43;;;2.37;;
28547;SDS011;68292;49.600;8.746;2024-01-27T02:19:00;3.43;;;2.47;;
28547;SDS011;68292;49.600;8.746;2024-01-27T02:21:30;4.13;;;2.33;;
28547;SDS011;68292;49.600;8.746;2024-01-27T02:23:58;3.27;;;2.20;;
28547;SDS011;68292;49.600;8.746;2024-01-27T02:26:29;3.60;;;2.23;;
28547;SDS011;68292;49.600;8.746;2024-01-27T02:28:57;6.17;;;2.83;;
28547;SDS011;68292;49.600;8.746;2024-01-27T02:31:26;7.83;;;3.30;;
28547;SDS011;68292;49.600;8.746;2024-01-27T02:33:55;4.03;;;3.63;;
28547;SDS011;68292;49.600;8.746;2024-01-27T02:36:24;3.30;;;2.80;;
28547;SDS011;68292;49.600;8.746;2024-01-27T02:38:52;3.67;;;2.10;;
28547;SDS011;68292;49.600;8.746;2024-01-27T02:41:21;2.37;;;1.90;;
28547;SDS011;68292;49.600;8.746;2024-01-27T02:43:51;5.77;;;2.60;;
28547;SDS011;68292;49.600;8.746;2024-01-27T02:46:20;7.87;;;2.70;;
28547;SDS011;68292;49.600;8.746;2024-01-27T02:48:49;6.93;;;3.07;;
28547;SDS011;68292;49.600;8.746;2024-01-27T02:51:18;3.53;;;2.90;;
28547;SDS011;68292;49.600;8.746;2024-01-27T02:53:48;7.30;;;3.50;;
28547;SDS011;68292;49.600;8.746;2024-01-27T02:56:17;5.87;;;3.43;;
28547;SDS011;68292;49.600;8.746;2024-01-27T02:58:45;6.60;;;3.37;;
28547;SDS011;68292;49.600;8.746;2024-01-27T03:01:15;5.13;;;3.43;;
28547;SDS011;68292;49.600;8.746;2024-01-27T03:03:44;5.23;;;3.23;;
28547;SDS011;68292;49.600;8.746;2024-01-27T03:06:13;3.57;;;3.27;;
28547;SDS011;68292;49.600;8.746;2024-01-27T03:08:42;3.90;;;3.00;;
28547;SDS011;68292;49.600;8.746;2024-01-27T03:11:11;3.97;;;3.07;;
28547;SDS011;68292;49.600;8.746;2024-01-27T03:13:40;4.07;;;2.67;;
28547;SDS011;68292;49.600;8.746;2024-01-27T03:16:12;3.53;;;2.87;;
28547;SDS011;68292;49.600;8.746;2024-01-27T03:18:42;6.90;;;3.20;;
28547;SDS011;68292;49.600;8.746;2024-01-27T03:21:11;4.33;;;3.53;;
28547;SDS011;68292;49.600;8.746;2024-01-27T03:23:40;5.57;;;3.33;;
28547;SDS011;68292;49.600;8.746;2024-01-27T03:26:08;4.73;;;3.67;;
28547;SDS011;68292;49.600;8.746;2024-01-27T03:28:37;5.23;;;4.07;;
28547;SDS011;68292;49.600;8.746;2024-01-27T03:31:06;6.37;;;4.10;;
28547;SDS011;68292;49.600;8.746;2024-01-27T03:33:35;5.43;;;4.13;;
28547;SDS011;68292;49.600;8.746;2024-01-27T03:36:10;4.17;;;3.77;;
28547;SDS011;68292;49.600;8.746;2024-01-27T03:38:40;13.83;;;4.23;;
28547;SDS011;68292;49.600;8.746;2024-01-27T03:41:09;5.77;;;3.73;;
28547;SDS011;68292;49.600;8.746;2024-01-27T03:43:38;4.90;;;3.70;;
28547;SDS011;68292;49.600;8.746;2024-01-27T03:46:07;5.63;;;3.57;;
28547;SDS011;68292;49.600;8.746;2024-01-27T03:48:36;5.03;;;3.77;;
28547;SDS011;68292;49.600;8.746;2024-01-27T03:51:04;4.97;;;3.20;;
28547;SDS011;68292;49.600;8.746;2024-01-27T03:53:35;4.27;;;2.97;;
28547;SDS011;68292;49.600;8.746;2024-01-27T03:56:04;3.70;;;2.50;;
28547;SDS011;68292;49.600;8.746;2024-01-27T03:58:34;2.47;;;2.27;;
28547;SDS011;68292;49.600;8.746;2024-01-27T04:01:03;3.60;;;2.87;;
28547;SDS011;68292;49.600;8.746;2024-01-27T04:03:32;2.53;;;2.23;;
28547;SDS011;68292;49.600;8.746;2024-01-27T04:06:00;3.23;;;2.90;;
28547;SDS011;68292;49.600;8.746;2024-01-27T04:08:30;3.40;;;2.67;;
28547;SDS011;68292;49.600;8.746;2024-01-27T04:11:00;3.37;;;2.70;;
28547;SDS011;68292;49.600;8.746;2024-01-27T04:13:28;3.50;;;3.00;;
28547;SDS011;68292;49.600;8.746;2024-01-27T04:15:57;4.47;;;3.27;;
28547;SDS011;68292;49.600;8.746;2024-01-27T04:18:28;4.53;;;3.07;;
28547;SDS011;68292;49.600;8.746;2024-01-27T04:20:57;3.83;;;2.63;;
28547;SDS011;68292;49.600;8.746;2024-01-27T04:23:26;5.20;;;2.70;;
28547;SDS011;68292;49.600;8.746;2024-01-27T04:25:54;4.23;;;2.97;;
28547;SDS011;68292;49.600;8.746;2024-01-27T04:28:24;3.00;;;2.70;;
28547;SDS011;68292;49.600;8.746;2024-01-27T04:30:53;3.30;;;2.90;;
28547;SDS011;68292;49.600;8.746;2024-01-27T04:33:22;3.13;;;2.43;;
28547;SDS011;68292;49.600;8.746;2024-01-27T04:35:51;5.93;;;3.00;;
28547;SDS011;68292;49.600;8.746;2024-01-27T04:38:20;3.67;;;3.20;;
28547;SDS011;68292;49.600;8.746;2024-01-27T04:40:48;4.13;;;3.43;;
28547;SDS011;68292;49.600;8.746;2024-01-27T04:43:19;3.87;;;3.50;;
28547;SDS011;68292;49.600;8.746;2024-01-27T04:45:49;4.37;;;3.40;;
28547;SDS011;68292;49.600;8.746;2024-01-27T04:48:17;4.63;;;3.23;;
28547;SDS011;68292;49.600;8.746;2024-01-27T04:50:46;3.80;;;3.23;;
28547;SDS011;68292;49.600;8.746;2024-01-27T04:53:15;3.47;;;3.17;;
28547;SDS011;68292;49.600;8.746;2024-01-27T04:55:44;3.77;;;3.10;;
28547;SDS011;68292;49.600;8.746;2024-01-27T04:58:13;4.43;;;3.23;;
28547;SDS011;68292;49.600;8.746;2024-01-27T05:00:41;4.93;;;3.10;;
28547;SDS011;68292;49.600;8.746;2024-01-27T05:03:12;3.40;;;3.10;;
28547;SDS011;68292;49.600;8.746;2024-01-27T05:05:42;3.70;;;3.17;;
28547;SDS011;68292;49.600;8.746;2024-01-27T05:08:11;3.40;;;2.83;;
28547;SDS011;68292;49.600;8.746;2024-01-27T05:10:40;3.90;;;2.93;;
28547;SDS011;68292;49.600;8.746;2024-01-27T05:13:08;4.90;;;3.33;;
28547;SDS011;68292;49.600;8.746;2024-01-27T05:15:37;5.43;;;3.27;;
28547;SDS011;68292;49.600;8.746;2024-01-27T05:18:06;4.13;;;3.00;;
28547;SDS011;68292;49.600;8.746;2024-01-27T05:20:38;4.43;;;2.73;;
28547;SDS011;68292;49.600;8.746;2024-01-27T05:23:07;5.00;;;3.30;;
28547;SDS011;68292;49.600;8.746;2024-01-27T05:25:35;3.80;;;2.87;;
28547;SDS011;68292;49.600;8.746;2024-01-27T05:28:05;4.27;;;3.27;;
28547;SDS011;68292;49.600;8.746;2024-01-27T05:30:34;4.87;;;2.90;;
28547;SDS011;68292;49.600;8.746;2024-01-27T05:33:03;3.70;;;2.87;;
28547;SDS011;68292;49.600;8.746;2024-01-27T05:35:32;4.67;;;2.73;;
28547;SDS011;68292;49.600;8.746;2024-01-27T05:38:02;3.97;;;3.33;;
28547;SDS011;68292;49.600;8.746;2024-01-27T05:40:31;5.13;;;2.90;;
28547;SDS011;68292;49.600;8.746;2024-01-27T05:43:02;3.87;;;2.70;;
28547;SDS011;68292;49.600;8.746;2024-01-27T05:45:31;5.70;;;3.10;;
28547;SDS011;68292;49.600;8.746;2024-01-27T05:48:00;4.43;;;3.20;;
28547;SDS011;68292;49.600;8.746;2024-01-27T05:50:29;3.53;;;2.70;;
28547;SDS011;68292;49.600;8.746;2024-01-27T05:52:58;2.93;;;2.63;;
28547;SDS011;68292;49.600;8.746;2024-01-27T05:55:28;3.03;;;2.70;;
28547;SDS011;68292;49.600;8.746;2024-01-27T05:57:57;3.13;;;2.50;;
28547;SDS011;68292;49.600;8.746;2024-01-27T06:00:26;4.67;;;2.40;;
28547;SDS011;68292;49.600;8.746;2024-01-27T06:02:55;4.03;;;2.33;;
28547;SDS011;68292;49.600;8.746;2024-01-27T06:05:23;2.50;;;2.30;;
28547;SDS011;68292;49.600;8.746;2024-01-27T06:07:52;3.03;;;2.83;;
28547;SDS011;68292;49.600;8.746;2024-01-27T06:10:21;4.20;;;2.70;;
28547;SDS011;68292;49.600;8.746;2024-01-27T06:12:52;3.87;;;2.67;;
28547;SDS011;68292;49.600;8.746;2024-01-27T06:15:21;4.40;;;2.63;;
28547;SDS011;68292;49.600;8.746;2024-01-27T06:17:50;4.23;;;2.87;;
28547;SDS011;68292;49.600;8.746;2024-01-27T06:20:19;7.90;;;2.73;;
28547;SDS011;68292;49.600;8.746;2024-01-27T06:22:48;9.10;;;2.80;;
28547;SDS011;68292;49.600;8.746;2024-01-27T06:25:16;4.10;;;2.40;;
28547;SDS011;68292;49.600;8.746;2024-01-27T06:27:45;3.60;;;2.93;;
28547;SDS011;68292;49.600;8.746;2024-01-27T06:30:15;4.97;;;2.83;;
28547;SDS011;68292;49.600;8.746;2024-01-27T06:32:45;3.80;;;2.70;;
28547;SDS011;68292;49.600;8.746;2024-01-27T06:35:15;3.73;;;2.83;;
28547;SDS011;68292;49.600;8.746;2024-01-27T06:37:44;4.17;;;2.97;;
28547;SDS011;68292;49.600;8.746;2024-01-27T06:40:13;4.50;;;2.90;;
28547;SDS011;68292;49.600;8.746;2024-01-27T06:42:42;4.80;;;2.90;;
28547;SDS011;68292;49.600;8.746;2024-01-27T06:45:11;3.37;;;2.97;;
28547;SDS011;68292;49.600;8.746;2024-01-27T06:47:41;3.10;;;2.80;;
28547;SDS011;68292;49.600;8.746;2024-01-27T06:50:10;3.03;;;2.57;;
28547;SDS011;68292;49.600;8.746;2024-01-27T06:52:40;2.57;;;2.37;;
28547;SDS011;68292;49.600;8.746;2024-01-27T06:55:09;2.93;;;2.30;;
28547;SDS011;68292;49.600;8.746;2024-01-27T06:57:38;5.00;;;2.93;;
28547;SDS011;68292;49.600;8.746;2024-01-27T07:00:08;2.83;;;2.60;;
28547;SDS011;68292;49.600;8.746;2024-01-27T07:02:43;4.63;;;2.57;;
28547;SDS011;68292;49.600;8.746;2024-01-27T07:05:12;4.03;;;3.03;;
28547;SDS011;68292;49.600;8.746;2024-01-27T07:07:42;3.90;;;2.70;;
28547;SDS011;68292;49.600;8.746;2024-01-27T07:10:10;3.13;;;2.33;;
28547;SDS011;68292;49.600;8.746;2024-01-27T07:12:39;2.80;;;2.60;;
28547;SDS011;68292;49.600;8.746;2024-01-27T07:15:08;6.10;;;3.20;;
28547;SDS011;68292;49.600;8.746;2024-01-27T07:17:37;3.53;;;2.90;;
28547;SDS011;68292;49.600;8.746;2024-01-27T07:20:08;4.20;;;3.10;;
28547;SDS011;68292;49.600;8.746;2024-01-27T07:22:38;3.70;;;3.40;;
28547;SDS011;68292;49.600;8.746;2024-01-27T07:25:07;3.73;;;2.80;;
28547;SDS011;68292;49.600;8.746;2024-01-27T07:27:37;3.47;;;3.13;;
28547;SDS011;68292;49.600;8.746;2024-01-27T07:30:06;3.70;;;3.20;;
28547;SDS011;68292;49.600;8.746;2024-01-27T07:32:38;3.77;;;3.30;;
28547;SDS011;68292;49.600;8.746;2024-01-27T07:35:09;4.00;;;3.13;;
28547;SDS011;68292;49.600;8.746;2024-01-27T07:37:37;4.70;;;3.77;;
28547;SDS011;68292;49.600;8.746;2024-01-27T07:40:09;3.23;;;2.93;;
28547;SDS011;68292;49.600;8.746;2024-01-27T07:42:39;4.10;;;3.10;;
28547;SDS011;68292;49.600;8.746;2024-01-27T07:45:08;3.90;;;3.03;;
28547;SDS011;68292;49.600;8.746;2024-01-27T07:47:37;3.30;;;3.00;;
28547;SDS011;68292;49.600;8.746;2024-01-27T07:50:06;6.17;;;3.53;;
28547;SDS011;68292;49.600;8.746;2024-01-27T07:52:37;6.97;;;3.73;;
28547;SDS011;68292;49.600;8.746;2024-01-27T07:55:06;4.00;;;3.57;;
28547;SDS011;68292;49.600;8.746;2024-01-27T07:57:36;6.47;;;4.47;;
28547;SDS011;68292;49.600;8.746;2024-01-27T08:00:05;6.40;;;4.77;;
28547;SDS011;68292;49.600;8.746;2024-01-27T08:02:36;5.43;;;4.47;;
28547;SDS011;68292;49.600;8.746;2024-01-27T08:05:04;8.53;;;4.40;;
28547;SDS011;68292;49.600;8.746;2024-01-27T08:07:35;5.73;;;4.70;;
28547;SDS011;68292;49.600;8.746;2024-01-27T08:10:04;7.03;;;4.37;;
28547;SDS011;68292;49.600;8.746;2024-01-27T08:12:37;8.93;;;5.17;;
28547;SDS011;68292;49.600;8.746;2024-01-27T08:15:06;4.87;;;4.20;;
28547;SDS011;68292;49.600;8.746;2024-01-27T08:17:36;5.47;;;4.37;;
28547;SDS011;68292;49.600;8.746;2024-01-27T08:20:05;5.10;;;4.07;;
28547;SDS011;68292;49.600;8.746;2024-01-27T08:22:36;5.20;;;4.10;;
28547;SDS011;68292;49.600;8.746;2024-01-27T08:25:06;5.17;;;4.50;;
28547;SDS011;68292;49.600;8.746;2024-01-27T08:27:35;5.53;;;4.47;;
28547;SDS011;68292;49.600;8.746;2024-01-27T08:30:04;6.17;;;4.00;;
28547;SDS011;68292;49.600;8.746;2024-01-27T08:32:35;5.03;;;4.50;;
28547;SDS011;68292;49.600;8.746;2024-01-27T08:35:04;4.77;;;3.87;;
28547;SDS011;68292;49.600;8.746;2024-01-27T08:37:39;5.63;;;4.60;;
28547;SDS011;68292;49.600;8.746;2024-01-27T08:40:08;5.33;;;4.60;;
28547;SDS011;68292;49.600;8.746;2024-01-27T08:42:38;4.77;;;3.80;;
28547;SDS011;68292;49.600;8.746;2024-01-27T08:45:07;4.80;;;4.40;;
28547;SDS011;68292;49.600;8.746;2024-01-27T08:47:36;6.33;;;4.57;;
28547;SDS011;68292;49.600;8.746;2024-01-27T08:50:06;5.50;;;4.60;;
28547;SDS011;68292;49.600;8.746;2024-01-27T08:52:36;5.37;;;4.83;;
28547;SDS011;68292;49.600;8.746;2024-01-27T08:55:06;7.43;;;5.40;;
28547;SDS011;68292;49.600;8.746;2024-01-27T08:57:35;6.20;;;4.80;;
28547;SDS011;68292;49.600;8.746;2024-01-27T09:00:05;7.97;;;5.57;;
28547;SDS011;68292;49.600;8.746;2024-01-27T09:02:36;6.97;;;5.23;;
28547;SDS011;68292;49.600;8.746;2024-01-27T09:05:05;8.33;;;5.77;;
28547;SDS011;68292;49.600;8.746;2024-01-27T09:07:34;6.57;;;5.70;;
28547;SDS011;68292;49.600;8.746;2024-01-27T09:10:06;7.70;;;5.40;;
28547;SDS011;68292;49.600;8.746;2024-01-27T09:12:36;6.10;;;4.13;;
28547;SDS011;68292;49.600;8.746;2024-01-27T09:15:05;6.60;;;4.73;;
28547;SDS011;68292;49.600;8.746;2024-01-27T09:17:35;6.70;;;4.57;;
28547;SDS011;68292;49.600;8.746;2024-01-27T09:20:04;4.73;;;4.30;;
28547;SDS011;68292;49.600;8.746;2024-01-27T09:22:34;5.23;;;4.63;;
28547;SDS011;68292;49.600;8.746;2024-01-27T09:25:05;7.53;;;3.63;;
28547;SDS011;68292;49.600;8.746;2024-01-27T09:27:35;6.30;;;4.03;;
28547;SDS011;68292;49.600;8.746;2024-01-27T09:30:04;5.60;;;4.30;;
28547;SDS011;68292;49.600;8.746;2024-01-27T09:32:35;4.33;;;3.93;;
28547;SDS011;68292;49.600;8.746;2024-01-27T09:35:04;6.47;;;3.83;;
28547;SDS011;68292;49.600;8.746;2024-01-27T09:37:33;4.37;;;3.60;;
28547;SDS011;68292;49.600;8.746;2024-01-27T09:40:02;5.37;;;3.67;;
28547;SDS011;68292;49.600;8.746;2024-01-27T09:42:35;7.03;;;3.93;;
28547;SDS011;68292;49.600;8.746;2024-01-27T09:45:07;4.67;;;2.80;;
28547;SDS011;68292;49.600;8.746;2024-01-27T09:47:37;6.37;;;3.90;;
28547;SDS011;68292;49.600;8.746;2024-01-27T09:50:08;3.83;;;3.20;;
28547;SDS011;68292;49.600;8.746;2024-01-27T09:52:40;5.77;;;4.07;;
28547;SDS011;68292;49.600;8.746;2024-01-27T09:55:10;5.00;;;3.93;;
28547;SDS011;68292;49.600;8.746;2024-01-27T09:57:39;6.73;;;4.50;;
28547;SDS011;68292;49.600;8.746;2024-01-27T10:00:09;4.47;;;3.43;;
28547;SDS011;68292;49.600;8.746;2024-01-27T10:02:39;7.13;;;4.23;;
28547;SDS011;68292;49.600;8.746;2024-01-27T10:05:09;6.83;;;4.23;;
28547;SDS011;68292;49.600;8.746;2024-01-27T10:07:39;7.63;;;4.30;;
28547;SDS011;68292;49.600;8.746;2024-01-27T10:10:10;6.00;;;3.83;;
28547;SDS011;68292;49.600;8.746;2024-01-27T10:12:40;6.80;;;4.20;;
28547;SDS011;68292;49.600;8.746;2024-01-27T10:18:03;6.77;;;4.20;;
28547;SDS011;68292;49.600;8.746;2024-01-27T10:20:34;4.17;;;3.40;;
28547;SDS011;68292;49.600;8.746;2024-01-27T10:23:12;4.70;;;3.80;;
28547;SDS011;68292;49.600;8.746;2024-01-27T10:25:43;6.63;;;4.10;;
28547;SDS011;68292;49.600;8.746;2024-01-27T10:28:12;6.67;;;4.07;;
28547;SDS011;68292;49.600;8.746;2024-01-27T10:30:41;10.17;;;4.63;;
28547;SDS011;68292;49.600;8.746;2024-01-27T10:33:10;6.17;;;4.17;;
28547;SDS011;68292;49.600;8.746;2024-01-27T10:35:40;5.30;;;3.83;;
28547;SDS011;68292;49.600;8.746;2024-01-27T10:38:10;7.43;;;4.53;;
28547;SDS011;68292;49.600;8.746;2024-01-27T10:40:38;8.60;;;4.87;;
28547;SDS011;68292;49.600;8.746;2024-01-27T10:43:09;4.20;;;3.80;;
28547;SDS011;68292;49.600;8.746;2024-01-27T10:45:38;7.13;;;4.80;;
28547;SDS011;68292;49.600;8.746;2024-01-27T10:48:08;7.20;;;4.87;;
28547;SDS011;68292;49.600;8.746;2024-01-27T10:50:39;10.23;;;5.07;;
28547;SDS011;68292;49.600;8.746;2024-01-27T10:53:16;9.70;;;4.77;;
28547;SDS011;68292;49.600;8.746;2024-01-27T10:55:52;10.97;;;4.60;;
28547;SDS011;68292;49.600;8.746;2024-01-27T10:58:25;6.20;;;4.10;;
28547;SDS011;68292;49.600;8.746;2024-01-27T11:00:55;8.67;;;4.00;;
28547;SDS011;68292;49.600;8.746;2024-01-27T11:03:25;7.43;;;3.93;;
28547;SDS011;68292;49.600;8.746;2024-01-27T11:05:55;6.07;;;3.33;;
28547;SDS011;68292;49.600;8.746;2024-01-27T11:08:25;7.17;;;3.63;;
28547;SDS011;68292;49.600;8.746;2024-01-27T11:10:56;5.20;;;3.77;;
28547;SDS011;68292;49.600;8.746;2024-01-27T11:13:28;5.53;;;3.63;;
28547;SDS011;68292;49.600;8.746;2024-01-27T11:15:57;5.50;;;3.20;;
28547;SDS011;68292;49.600;8.746;2024-01-27T11:18:26;6.90;;;3.10;;
28547;SDS011;68292;49.600;8.746;2024-01-27T11:20:58;7.83;;;3.10;;
28547;SDS011;68292;49.600;8.746;2024-01-27T11:23:34;5.57;;;2.50;;
28547;SDS011;68292;49.600;8.746;2024-01-27T11:26:04;5.80;;;2.53;;
28547;SDS011;68292;49.600;8.746;2024-01-27T11:28:35;4.90;;;2.20;;
28547;SDS011;68292;49.600;8.746;2024-01-27T11:31:05;5.63;;;2.60;;
28547;SDS011;68292;49.600;8.746;2024-01-27T11:33:40;4.93;;;2.53;;
28547;SDS011;68292;49.600;8.746;2024-01-27T11:36:18;2.57;;;2.13;;
28547;SDS011;68292;49.600;8.746;2024-01-27T11:38:49;5.90;;;2.60;;
28547;SDS011;68292;49.600;8.746;2024-01-27T11:41:26;5.10;;;2.67;;
28547;SDS011;68292;49.600;8.746;2024-01-27T11:43:58;10.83;;;3.30;;
28547;SDS011;68292;49.600;8.746;2024-01-27T11:46:28;6.27;;;3.37;;
28547;SDS011;68292;49.600;8.746;2024-01-27T11:48:56;6.87;;;3.53;;
28547;SDS011;68292;49.600;8.746;2024-01-27T11:51:25;4.70;;;2.83;;
28547;SDS011;68292;49.600;8.746;2024-01-27T11:53:55;7.57;;;2.43;;
28547;SDS011;68292;49.600;8.746;2024-01-27T11:56:24;6.40;;;2.90;;
28547;SDS011;68292;49.600;8.746;2024-01-27T11:58:53;5.40;;;2.63;;
28547;SDS011;68292;49.600;8.746;2024-01-27T12:01:24;7.47;;;2.63;;
28547;SDS011;68292;49.600;8.746;2024-01-27T12:03:53;6.07;;;2.87;;
28547;SDS011;68292;49.600;8.746;2024-01-27T12:06:22;7.13;;;3.07;;
28547;SDS011;68292;49.600;8.746;2024-01-27T12:08:53;6.60;;;2.80;;
28547;SDS011;68292;49.600;8.746;2024-01-27T12:11:24;3.33;;;1.97;;
28547;SDS011;68292;49.600;8.746;2024-01-27T12:13:53;4.80;;;2.53;;
28547;SDS011;68292;49.600;8.746;2024-01-27T12:16:24;3.47;;;2.40;;
28547;SDS011;68292;49.600;8.746;2024-01-27T12:18:53;6.27;;;2.93;;
28547;SDS011;68292;49.600;8.746;2024-01-27T12:21:22;5.83;;;3.40;;
28547;SDS011;68292;49.600;8.746;2024-01-27T12:23:52;5.33;;;2.77;;
28547;SDS011;68292;49.600;8.746;2024-01-27T12:26:22;6.70;;;2.60;;
28547;SDS011;68292;49.600;8.746;2024-01-27T12:28:53;4.70;;;2.90;;
28547;SDS011;68292;49.600;8.746;2024-01-27T12:31:26;2.73;;;2.37;;
28547;SDS011;68292;49.600;8.746;2024-01-27T12:33:56;6.67;;;2.90;;
28547;SDS011;68292;49.600;8.746;2024-01-27T12:36:26;6.90;;;2.77;;
28547;SDS011;68292;49.600;8.746;2024-01-27T12:38:56;7.43;;;2.93;;
28547;SDS011;68292;49.600;8.746;2024-01-27T12:41:26;6.53;;;2.60;;
28547;SDS011;68292;49.600;8.746;2024-01-27T12:43:56;7.03;;;3.00;;
28547;SDS011;68292;49.600;8.746;2024-01-27T12:46:26;6.13;;;2.57;;
28547;SDS011;68292;49.600;8.746;2024-01-27T12:48:55;3.10;;;2.10;;
28547;SDS011;68292;49.600;8.746;2024-01-27T12:51:24;4.30;;;2.77;;
28547;SDS011;68292;49.600;8.746;2024-01-27T12:53:53;4.83;;;2.60;;
28547;SDS011;68292;49.600;8.746;2024-01-27T12:56:22;3.83;;;2.00;;
28547;SDS011;68292;49.600;8.746;2024-01-27T12:58:51;4.73;;;3.20;;
28547;SDS011;68292;49.600;8.746;2024-01-27T13:01:20;3.00;;;2.13;;
28547;SDS011;68292;49.600;8.746;2024-01-27T13:03:50;7.37;;;2.50;;
28547;SDS011;68292;49.600;8.746;2024-01-27T13:06:19;5.30;;;2.00;;
28547;SDS011;68292;49.600;8.746;2024-01-27T13:08:50;3.23;;;1.90;;
28547;SDS011;68292;49.600;8.746;2024-01-27T13:11:19;6.27;;;2.20;;
28547;SDS011;68292;49.600;8.746;2024-01-27T13:13:48;5.90;;;1.90;;
28547;SDS011;68292;49.600;8.746;2024-01-27T13:16:17;4.43;;;2.17;;
28547;SDS011;68292;49.600;8.746;2024-01-27T13:18:46;2.90;;;2.10;;
28547;SDS011;68292;49.600;8.746;2024-01-27T13:21:16;4.97;;;1.97;;
28547;SDS011;68292;49.600;8.746;2024-01-27T13:23:45;4.63;;;2.20;;
28547;SDS011;68292;49.600;8.746;2024-01-27T13:26:14;4.80;;;1.90;;
28547;SDS011;68292;49.600;8.746;2024-01-27T13:28:45;4.20;;;1.80;;
28547;SDS011;68292;49.600;8.746;2024-01-27T13:31:16;5.47;;;2.20;;
28547;SDS011;68292;49.600;8.746;2024-01-27T13:33:45;4.10;;;2.30;;
28547;SDS011;68292;49.600;8.746;2024-01-27T13:36:16;6.97;;;2.60;;
28547;SDS011;68292;49.600;8.746;2024-01-27T13:38:45;3.20;;;2.17;;
28547;SDS011;68292;49.600;8.746;2024-01-27T13:41:14;3.40;;;2.27;;
28547;SDS011;68292;49.600;8.746;2024-01-27T13:43:43;6.67;;;2.33;;
28547;SDS011;68292;49.600;8.746;2024-01-27T13:46:15;6.20;;;2.67;;
28547;SDS011;68292;49.600;8.746;2024-01-27T13:48:44;3.97;;;2.37;;
28547;SDS011;68292;49.600;8.746;2024-01-27T13:51:13;6.47;;;2.40;;
28547;SDS011;68292;49.600;8.746;2024-01-27T13:53:50;7.87;;;2.83;;
28547;SDS011;68292;49.600;8.746;2024-01-27T13:56:19;5.43;;;2.70;;
28547;SDS011;68292;49.600;8.746;2024-01-27T13:58:48;4.50;;;2.40;;
28547;SDS011;68292;49.600;8.746;2024-01-27T14:01:18;4.83;;;2.17;;
28547;SDS011;68292;49.600;8.746;2024-01-27T14:03:47;7.57;;;2.37;;
28547;SDS011;68292;49.600;8.746;2024-01-27T14:06:16;5.47;;;2.20;;
28547;SDS011;68292;49.600;8.746;2024-01-27T14:08:45;6.83;;;2.30;;
28547;SDS011;68292;49.600;8.746;2024-01-27T14:11:18;3.23;;;1.97;;
28547;SDS011;68292;49.600;8.746;2024-01-27T14:13:48;6.87;;;2.77;;
28547;SDS011;68292;49.600;8.746;2024-01-27T14:16:17;4.90;;;2.07;;
28547;SDS011;68292;49.600;8.746;2024-01-27T14:18:47;5.40;;;2.37;;
28547;SDS011;68292;49.600;8.746;2024-01-27T14:21:16;9.00;;;2.83;;
28547;SDS011;68292;49.600;8.746;2024-01-27T14:23:45;8.73;;;4.07;;
28547;SDS011;68292;49.600;8.746;2024-01-27T14:26:19;6.97;;;3.10;;
28547;SDS011;68292;49.600;8.746;2024-01-27T14:28:47;2.90;;;2.37;;
28547;SDS011;68292;49.600;8.746;2024-01-27T14:31:16;5.20;;;2.80;;
28547;SDS011;68292;49.600;8.746;2024-01-27T14:33:45;7.23;;;2.50;;
28547;SDS011;68292;49.600;8.746;2024-01-27T14:36:16;6.07;;;2.57;;
28547;SDS011;68292;49.600;8.746;2024-01-27T14:38:47;7.40;;;2.40;;
28547;SDS011;68292;49.600;8.746;2024-01-27T14:41:23;4.93;;;3.10;;
28547;SDS011;68292;49.600;8.746;2024-01-27T14:43:52;8.10;;;3.73;;
28547;SDS011;68292;49.600;8.746;2024-01-27T14:46:22;5.93;;;2.97;;
28547;SDS011;68292;49.600;8.746;2024-01-27T14:48:50;7.87;;;3.20;;
28547;SDS011;68292;49.600;8.746;2024-01-27T14:51:21;4.47;;;2.63;;
28547;SDS011;68292;49.600;8.746;2024-01-27T14:53:50;5.13;;;2.20;;
28547;SDS011;68292;49.600;8.746;2024-01-27T14:56:19;3.23;;;2.00;;
28547;SDS011;68292;49.600;8.746;2024-01-27T14:58:49;5.00;;;2.43;;
28547;SDS011;68292;49.600;8.746;2024-01-27T15:01:18;5.70;;;2.60;;
28547;SDS011;68292;49.600;8.746;2024-01-27T15:03:47;4.83;;;2.17;;
28547;SDS011;68292;49.600;8.746;2024-01-27T15:06:16;4.63;;;2.20;;